Bookmark and Share
Track history (hours):
 

Aslan

More information available from US FCC via Universal Licensing System and Coast Guard Vessel Documentation Center.

Last reported at 2013-Aug-10 20:12 UTC. Time now 2014-Apr-17 01:01 UTC.
Position N 44°11' W 068°48'.
Warning: this ship's position is months out of date.

; draft 4 m.

MMSI: 367392490.

NotesDate/timePositionNaut miles runAvg speedWind from/ knotsBaromVisibWave heightAir tempDewpointWater temp
2013-Aug-10 20:12N 44°11' W 068°48'4 5.9
2013-Aug-10 19:33N 44°11' W 068°53'6 6.3
2013-Aug-10 18:33N 44°09' W 069°01'3 2.7
2013-Aug-10 17:33N 44°11' W 069°04'0 0.0
2013-Aug-10 16:33N 44°11' W 069°04'0 0.0
2013-Aug-10 15:33N 44°11' W 069°04'0 0.0
2013-Aug-10 14:33N 44°11' W 069°04'0 0.5
2013-Aug-10 13:33N 44°11' W 069°04'0 0.0
2013-Aug-10 12:33N 44°11' W 069°04'0 0.0
2013-Aug-08 20:28N 44°11' W 069°04'4 4.7
2013-Aug-08 19:33N 44°08' W 068°60'8 0.3
2013-Aug-07 16:05N 44°11' W 068°50'4 7.3
2013-Aug-07 15:33N 44°10' W 068°55'7 6.7
2013-Aug-07 14:33N 44°10' W 069°04'0 0.0
2013-Aug-05 21:11N 44°11' W 069°04'1 0.8
2013-Aug-05 20:33N 44°11' W 069°04'2 2.5
2013-Aug-05 19:33N 44°09' W 069°04'4 4.3
2013-Aug-05 18:33N 44°06' W 068°59'4 3.5
2013-Aug-05 17:33N 44°05' W 068°54'1 1.3
2013-Aug-05 16:33N 44°05' W 068°53'0 0.0
2013-Aug-05 15:33N 44°05' W 068°53'0 0.0
2013-Aug-04 23:33N 44°05' W 068°53'0 0.0
2013-Aug-04 22:33N 44°05' W 068°53'2 1.4
2013-Aug-04 21:13N 44°03' W 068°52'8 0.3
2013-Aug-03 19:16N 44°11' W 068°52'6 7.8
2013-Aug-03 18:33N 44°09' W 068°59'4 4.4
2013-Aug-03 17:33N 44°11' W 069°04'0 0.0
2013-Aug-03 16:33N 44°11' W 069°04'0 0.0
2013-Aug-03 15:33N 44°11' W 069°04'  

Dump ship's entire track history

sailing weather and tide predictions

Aslan — WDE7373 — position and weather